»·PEaware :: N80VJ KBUR-KLAS

N80VJ :: KBUR-KLAS

FLIGHT INFORMATION

Flight Status: Arrived
Operator: Privately registered:
United States
More flights under this callsign
Pilot: Christopher S. (28961)
Aircraft: CIRRUS SR-22 TURBO
(S22T)
More flights by this aircraft type
Origin: KBUR Bob Hope-Burbank
United States
Destination: KLAS McCarran Intl
United States
More flights between these airports :: More routes between these airports
Route: VNY3 DAG CRESO4
File this flight plan on PilotEdge
Remarks:
Altitude:
(Current/Filed)
7,000ft
Speed:
(Current/Filed)
180kts
Departed: 20-Jan-21 03:58 PM
Arrived: 20-Jan-21 05:19 PM
Distance/Time
Traveled:
194nm/1:21
Distance/Time
To Go:
Arrived

Flight Plot

Page will automatically refresh every two minutes.

Flight plan parsing failed; only flown route is shown


Map Options




Map Legend


Flown Route
Filed Route
Departure Airport
Arrival Airport
Navaid (VOR, NDB)
Fix

Horizontal Profiles

Position Reports

Time Latitude Longitude Heading Altitude Ground
Speed
20-Jan-21 15:39 34.200071 -118.359276 199 725ft 0kts
20-Jan-21 15:40 34.200071 -118.359276 199 725ft 0kts
20-Jan-21 15:41 34.200071 -118.359276 199 725ft 0kts
20-Jan-21 15:42 34.200071 -118.359276 199 725ft 0kts
20-Jan-21 15:43 34.200071 -118.359276 199 725ft 0kts
20-Jan-21 15:44 34.200071 -118.359276 199 725ft 0kts
20-Jan-21 15:45 34.200071 -118.359276 199 725ft 0kts
20-Jan-21 15:46 34.200071 -118.359276 199 725ft 0kts
20-Jan-21 15:47 34.200071 -118.359276 199 725ft 0kts
20-Jan-21 15:48 34.200071 -118.359276 199 725ft 0kts
20-Jan-21 15:49 34.200071 -118.359276 199 725ft 0kts
20-Jan-21 15:50 34.200071 -118.359276 199 725ft 0kts
20-Jan-21 15:51 34.200071 -118.359276 199 725ft 0kts
20-Jan-21 15:52 34.200063 -118.359279 195 725ft 1kts
20-Jan-21 15:53 34.201756 -118.358705 347 732ft 37kts
20-Jan-21 15:54 34.209855 -118.360924 347 770ft 19kts
20-Jan-21 15:55 34.211848 -118.361346 35 777ft 0kts
20-Jan-21 15:56 34.211956 -118.361236 41 778ft 5kts
20-Jan-21 15:57 34.199186 -118.357538 170 961ft 121kts
20-Jan-21 15:58 34.163728 -118.351001 169 2460ft 129kts
20-Jan-21 15:59 34.128111 -118.344680 169 3981ft 136kts
20-Jan-21 16:00 34.086396 -118.354956 261 4035ft 190kts
20-Jan-21 16:01 34.119693 -118.380787 351 5715ft 135kts
20-Jan-21 16:02 34.156469 -118.390724 351 7287ft 137kts
20-Jan-21 16:03 34.194409 -118.400436 10 8801ft 137kts
20-Jan-21 16:04 34.233095 -118.371006 35 9022ft 181kts
20-Jan-21 16:05 34.277198 -118.336882 35 9019ft 181kts
20-Jan-21 16:06 34.319975 -118.304038 35 9035ft 177kts
20-Jan-21 16:07 34.361384 -118.272259 35 9367ft 158kts
20-Jan-21 16:08 34.396984 -118.244937 36 10837ft 146kts
20-Jan-21 16:09 34.436320 -118.214589 35 11117ft 185kts
20-Jan-21 16:10 34.480549 -118.180524 35 11124ft 186kts
20-Jan-21 16:12 34.523150 -118.147653 36 11138ft 179kts
20-Jan-21 16:13 34.565694 -118.114786 36 11007ft 179kts
20-Jan-21 16:14 34.607658 -118.082332 36 11008ft 178kts
20-Jan-21 16:15 34.634069 -118.038029 82 11012ft 170kts
20-Jan-21 16:16 34.640566 -117.980984 83 11008ft 170kts
20-Jan-21 16:17 34.646828 -117.923997 83 11008ft 170kts
20-Jan-21 16:18 34.653050 -117.866880 83 11008ft 170kts
20-Jan-21 16:19 34.659254 -117.809642 83 11009ft 170kts
20-Jan-21 16:20 34.667008 -117.752943 74 11012ft 171kts
20-Jan-21 16:21 34.681133 -117.697832 74 11013ft 171kts
20-Jan-21 16:22 34.695344 -117.642414 74 11015ft 170kts
20-Jan-21 16:23 34.709533 -117.586985 74 11016ft 170kts
20-Jan-21 16:24 34.723704 -117.531505 74 11016ft 170kts
20-Jan-21 16:25 34.737924 -117.475727 74 11016ft 170kts
20-Jan-21 16:26 34.739294 -117.470340 74 11016ft 170kts
20-Jan-21 16:27 34.739294 -117.470340 74 11016ft 170kts
20-Jan-21 16:27 34.739294 -117.470340 74 11016ft 170kts
20-Jan-21 16:29 34.739294 -117.470340 74 11016ft 170kts
20-Jan-21 16:30 34.740882 -117.464097 74 11016ft 170kts
20-Jan-21 16:31 34.785216 -117.289336 74 11022ft 170kts
20-Jan-21 16:32 34.841005 -117.067865 75 11026ft 171kts
20-Jan-21 16:32 34.886981 -116.883818 76 11027ft 172kts
20-Jan-21 16:34 34.920865 -116.747103 75 11027ft 173kts
20-Jan-21 16:34 34.959140 -116.591977 75 11006ft 174kts
20-Jan-21 16:35 34.980298 -116.538324 63 11008ft 176kts
20-Jan-21 16:36 35.042220 -116.398816 63 11005ft 177kts
20-Jan-21 16:37 35.105198 -116.256730 64 10999ft 178kts
20-Jan-21 16:38 35.128922 -116.202792 64 10999ft 177kts
20-Jan-21 16:39 35.152682 -116.148815 64 11000ft 177kts
20-Jan-21 16:40 35.218408 -115.999103 64 10998ft 177kts
20-Jan-21 16:41 35.283550 -115.850095 64 11039ft 176kts
20-Jan-21 16:42 35.307661 -115.794776 64 11051ft 176kts
20-Jan-21 16:43 35.340155 -115.747929 49 11059ft 178kts
20-Jan-21 16:44 35.374935 -115.701643 49 10951ft 183kts
20-Jan-21 16:45 35.411156 -115.653283 49 10260ft 194kts
20-Jan-21 16:46 35.446922 -115.605513 49 10022ft 180kts
20-Jan-21 16:47 35.480337 -115.560784 49 10025ft 176kts
20-Jan-21 16:48 35.513402 -115.516472 49 10026ft 176kts
20-Jan-21 16:49 35.546596 -115.471963 49 10026ft 176kts
20-Jan-21 16:50 35.580367 -115.426610 49 10026ft 176kts
20-Jan-21 16:51 35.613465 -115.382111 49 10025ft 176kts
20-Jan-21 16:52 35.646559 -115.337479 50 10027ft 176kts
20-Jan-21 16:53 35.679554 -115.292991 50 10027ft 176kts
20-Jan-21 16:54 35.712639 -115.248332 50 10027ft 176kts
20-Jan-21 16:55 35.745704 -115.203645 50 10028ft 177kts
20-Jan-21 16:56 35.779758 -115.158454 48 10023ft 179kts
20-Jan-21 16:57 35.813840 -115.112796 51 10018ft 180kts
20-Jan-21 16:58 35.863331 -115.098303 0 9670ft 193kts
20-Jan-21 16:59 35.917357 -115.100807 0 8964ft 190kts
20-Jan-21 17:00 35.960633 -115.103531 0 8139ft 122kts
20-Jan-21 17:01 36.000111 -115.106195 0 8100ft 159kts
20-Jan-21 17:02 36.040808 -115.108781 0 8074ft 135kts
20-Jan-21 17:03 36.074597 -115.094638 30 7591ft 150kts
20-Jan-21 17:04 36.111468 -115.066099 40 7062ft 142kts
20-Jan-21 17:05 36.142817 -115.036920 40 7087ft 149kts
20-Jan-21 17:06 36.179833 -115.001910 40 7074ft 168kts
20-Jan-21 17:07 36.217823 -114.966064 40 7068ft 172kts
20-Jan-21 17:08 36.256630 -114.929613 40 7062ft 174kts
20-Jan-21 17:09 36.298941 -114.925943 311 7064ft 185kts
20-Jan-21 17:10 36.298950 -114.980666 222 6598ft 171kts
20-Jan-21 17:11 36.261568 -115.015888 210 5836ft 155kts
20-Jan-21 17:12 36.230397 -115.042222 203 5139ft 112kts
20-Jan-21 17:13 36.201706 -115.066415 212 4627ft 119kts
20-Jan-21 17:14 36.174397 -115.091005 212 3979ft 123kts
20-Jan-21 17:15 36.146271 -115.116324 213 3295ft 126kts
20-Jan-21 17:16 36.120408 -115.139583 213 2690ft 111kts
20-Jan-21 17:17 36.097694 -115.157735 198 2125ft 86kts
20-Jan-21 17:18 36.089260 -115.163566 286 2128ft 0kts
20-Jan-21 17:19 36.089655 -115.164329 332 2130ft 0kts
20-Jan-21 17:20 36.089655 -115.164329 332 2130ft 0kts
20-Jan-21 17:21 36.097100 -115.160274 21 2097ft 47kts
20-Jan-21 17:22 36.099094 -115.160364 154 2096ft 0kts
20-Jan-21 17:23 36.099094 -115.160364 154 2096ft 0kts
20-Jan-21 17:24 36.099094 -115.160364 154 2096ft 0kts
20-Jan-21 17:25 36.099094 -115.160364 154 2096ft 0kts
20-Jan-21 17:26 36.099094 -115.160364 154 2096ft 0kts
20-Jan-21 17:27 36.099094 -115.160364 154 2096ft 0kts

Navigation Log

Ident Type
Flight plan parsing failed, navigation log unavailable